sensor_id;sensor_type;location;lat;lon;timestamp;temperature;humidity
8882;DHT22;4477;48.736;9.176;2023-11-19T00:01:10;6.50;99.90
8882;DHT22;4477;48.736;9.176;2023-11-19T00:03:37;6.50;99.90
8882;DHT22;4477;48.736;9.176;2023-11-19T00:06:04;6.60;99.90
8882;DHT22;4477;48.736;9.176;2023-11-19T00:08:31;6.60;99.90
8882;DHT22;4477;48.736;9.176;2023-11-19T00:10:59;6.70;99.90
8882;DHT22;4477;48.736;9.176;2023-11-19T00:13:26;6.70;99.90
8882;DHT22;4477;48.736;9.176;2023-11-19T00:15:53;6.70;99.90
8882;DHT22;4477;48.736;9.176;2023-11-19T00:18:20;6.80;99.90
8882;DHT22;4477;48.736;9.176;2023-11-19T00:20:47;6.90;99.90
8882;DHT22;4477;48.736;9.176;2023-11-19T00:23:14;6.90;99.90
8882;DHT22;4477;48.736;9.176;2023-11-19T00:25:41;6.90;99.90
8882;DHT22;4477;48.736;9.176;2023-11-19T00:28:09;7.00;99.90
8882;DHT22;4477;48.736;9.176;2023-11-19T00:30:36;7.00;99.90
8882;DHT22;4477;48.736;9.176;2023-11-19T00:33:02;7.00;99.90
8882;DHT22;4477;48.736;9.176;2023-11-19T00:35:29;7.10;99.90
8882;DHT22;4477;48.736;9.176;2023-11-19T00:37:57;7.20;99.90
8882;DHT22;4477;48.736;9.176;2023-11-19T00:40:24;7.10;99.90
8882;DHT22;4477;48.736;9.176;2023-11-19T00:42:50;7.10;99.90
8882;DHT22;4477;48.736;9.176;2023-11-19T00:45:18;7.10;99.90
8882;DHT22;4477;48.736;9.176;2023-11-19T00:47:45;7.20;99.90
8882;DHT22;4477;48.736;9.176;2023-11-19T00:50:12;7.20;99.90
8882;DHT22;4477;48.736;9.176;2023-11-19T00:52:39;7.20;99.90
8882;DHT22;4477;48.736;9.176;2023-11-19T00:55:06;7.30;99.90
8882;DHT22;4477;48.736;9.176;2023-11-19T00:57:33;7.30;99.90
8882;DHT22;4477;48.736;9.176;2023-11-19T01:00:01;7.40;99.90
8882;DHT22;4477;48.736;9.176;2023-11-19T01:02:33;7.40;99.90
8882;DHT22;4477;48.736;9.176;2023-11-19T01:05:00;7.40;99.90
8882;DHT22;4477;48.736;9.176;2023-11-19T01:07:27;7.40;99.90
8882;DHT22;4477;48.736;9.176;2023-11-19T01:09:54;7.40;99.90
8882;DHT22;4477;48.736;9.176;2023-11-19T01:12:21;7.50;99.90
8882;DHT22;4477;48.736;9.176;2023-11-19T01:14:48;7.60;99.90
8882;DHT22;4477;48.736;9.176;2023-11-19T01:17:15;7.60;99.90
8882;DHT22;4477;48.736;9.176;2023-11-19T01:19:43;7.60;99.90
8882;DHT22;4477;48.736;9.176;2023-11-19T01:22:10;7.60;99.90
8882;DHT22;4477;48.736;9.176;2023-11-19T01:24:36;7.60;99.90
8882;DHT22;4477;48.736;9.176;2023-11-19T01:27:03;7.70;99.90
8882;DHT22;4477;48.736;9.176;2023-11-19T01:29:30;7.70;99.90
8882;DHT22;4477;48.736;9.176;2023-11-19T01:31:57;7.80;99.90
8882;DHT22;4477;48.736;9.176;2023-11-19T01:34:24;7.80;99.90
8882;DHT22;4477;48.736;9.176;2023-11-19T01:36:52;7.80;99.90
8882;DHT22;4477;48.736;9.176;2023-11-19T01:39:19;7.80;99.90
8882;DHT22;4477;48.736;9.176;2023-11-19T01:41:46;7.90;99.90
8882;DHT22;4477;48.736;9.176;2023-11-19T01:44:13;8.00;99.90
8882;DHT22;4477;48.736;9.176;2023-11-19T01:46:42;8.00;99.90
8882;DHT22;4477;48.736;9.176;2023-11-19T01:49:11;8.10;99.90
8882;DHT22;4477;48.736;9.176;2023-11-19T01:51:39;8.10;99.90
8882;DHT22;4477;48.736;9.176;2023-11-19T01:54:08;8.10;99.90
8882;DHT22;4477;48.736;9.176;2023-11-19T01:56:35;8.20;99.90
8882;DHT22;4477;48.736;9.176;2023-11-19T01:59:04;8.30;99.90
8882;DHT22;4477;48.736;9.176;2023-11-19T02:01:31;8.40;99.90
8882;DHT22;4477;48.736;9.176;2023-11-19T02:04:02;8.40;99.90
8882;DHT22;4477;48.736;9.176;2023-11-19T02:06:28;8.50;99.90
8882;DHT22;4477;48.736;9.176;2023-11-19T02:08:55;8.50;99.90
8882;DHT22;4477;48.736;9.176;2023-11-19T02:11:23;8.50;99.90
8882;DHT22;4477;48.736;9.176;2023-11-19T02:13:54;8.50;99.90
8882;DHT22;4477;48.736;9.176;2023-11-19T02:16:21;8.50;99.90
8882;DHT22;4477;48.736;9.176;2023-11-19T02:18:48;8.60;99.90
8882;DHT22;4477;48.736;9.176;2023-11-19T02:21:15;8.60;99.90
8882;DHT22;4477;48.736;9.176;2023-11-19T02:23:43;8.70;99.90
8882;DHT22;4477;48.736;9.176;2023-11-19T02:26:16;8.70;99.90
8882;DHT22;4477;48.736;9.176;2023-11-19T02:28:46;8.80;99.90
8882;DHT22;4477;48.736;9.176;2023-11-19T02:31:13;8.80;99.90
8882;DHT22;4477;48.736;9.176;2023-11-19T02:33:40;8.80;99.90
8882;DHT22;4477;48.736;9.176;2023-11-19T02:36:08;8.90;99.90
8882;DHT22;4477;48.736;9.176;2023-11-19T02:38:35;9.00;99.90
8882;DHT22;4477;48.736;9.176;2023-11-19T02:41:04;9.00;99.90
8882;DHT22;4477;48.736;9.176;2023-11-19T02:43:31;9.00;99.90
8882;DHT22;4477;48.736;9.176;2023-11-19T02:46:01;9.00;99.90
8882;DHT22;4477;48.736;9.176;2023-11-19T02:48:27;9.00;99.90
8882;DHT22;4477;48.736;9.176;2023-11-19T02:50:56;9.10;99.90
8882;DHT22;4477;48.736;9.176;2023-11-19T02:53:23;9.20;99.90
8882;DHT22;4477;48.736;9.176;2023-11-19T02:55:53;9.10;99.90
8882;DHT22;4477;48.736;9.176;2023-11-19T02:58:26;9.10;99.90
8882;DHT22;4477;48.736;9.176;2023-11-19T03:00:54;9.20;99.90
8882;DHT22;4477;48.736;9.176;2023-11-19T03:03:25;9.20;99.90
8882;DHT22;4477;48.736;9.176;2023-11-19T03:05:56;9.20;99.90
8882;DHT22;4477;48.736;9.176;2023-11-19T03:08:23;9.20;99.90
8882;DHT22;4477;48.736;9.176;2023-11-19T03:10:50;9.20;99.90
8882;DHT22;4477;48.736;9.176;2023-11-19T03:13:17;9.20;99.90
8882;DHT22;4477;48.736;9.176;2023-11-19T03:15:43;9.20;99.90
8882;DHT22;4477;48.736;9.176;2023-11-19T03:18:11;9.20;99.90
8882;DHT22;4477;48.736;9.176;2023-11-19T03:20:39;9.20;99.90
8882;DHT22;4477;48.736;9.176;2023-11-19T03:23:06;9.20;99.90
8882;DHT22;4477;48.736;9.176;2023-11-19T03:25:33;9.20;99.90
8882;DHT22;4477;48.736;9.176;2023-11-19T03:28:01;9.20;99.90
8882;DHT22;4477;48.736;9.176;2023-11-19T03:30:29;9.30;99.90
8882;DHT22;4477;48.736;9.176;2023-11-19T03:32:56;9.30;99.90
8882;DHT22;4477;48.736;9.176;2023-11-19T03:35:23;9.30;99.90
8882;DHT22;4477;48.736;9.176;2023-11-19T03:37:51;9.30;99.90
8882;DHT22;4477;48.736;9.176;2023-11-19T03:40:18;9.30;99.90
8882;DHT22;4477;48.736;9.176;2023-11-19T03:42:45;9.30;99.90
8882;DHT22;4477;48.736;9.176;2023-11-19T03:45:12;9.30;99.90
8882;DHT22;4477;48.736;9.176;2023-11-19T03:47:40;9.30;99.90
8882;DHT22;4477;48.736;9.176;2023-11-19T03:50:07;9.30;99.90
8882;DHT22;4477;48.736;9.176;2023-11-19T03:52:34;9.30;99.90
8882;DHT22;4477;48.736;9.176;2023-11-19T03:55:03;9.30;99.90
8882;DHT22;4477;48.736;9.176;2023-11-19T03:57:31;9.30;99.90
8882;DHT22;4477;48.736;9.176;2023-11-19T03:59:57;9.30;99.90
8882;DHT22;4477;48.736;9.176;2023-11-19T04:02:25;9.30;99.90
8882;DHT22;4477;48.736;9.176;2023-11-19T04:04:54;9.30;99.90
8882;DHT22;4477;48.736;9.176;2023-11-19T04:07:21;9.30;99.90
8882;DHT22;4477;48.736;9.176;2023-11-19T04:09:48;9.30;99.90
8882;DHT22;4477;48.736;9.176;2023-11-19T04:12:16;9.30;99.90
8882;DHT22;4477;48.736;9.176;2023-11-19T04:14:43;9.30;99.90
8882;DHT22;4477;48.736;9.176;2023-11-19T04:17:10;9.30;99.90
8882;DHT22;4477;48.736;9.176;2023-11-19T04:19:37;9.30;99.90
8882;DHT22;4477;48.736;9.176;2023-11-19T04:22:07;9.30;99.90
8882;DHT22;4477;48.736;9.176;2023-11-19T04:24:33;9.30;99.90
8882;DHT22;4477;48.736;9.176;2023-11-19T04:27:00;9.30;99.90
8882;DHT22;4477;48.736;9.176;2023-11-19T04:29:29;9.30;99.90
8882;DHT22;4477;48.736;9.176;2023-11-19T04:31:56;9.40;99.90
8882;DHT22;4477;48.736;9.176;2023-11-19T04:34:23;9.40;99.90
8882;DHT22;4477;48.736;9.176;2023-11-19T04:36:50;9.40;99.90
8882;DHT22;4477;48.736;9.176;2023-11-19T04:39:17;9.40;99.90
8882;DHT22;4477;48.736;9.176;2023-11-19T04:41:47;9.40;99.90
8882;DHT22;4477;48.736;9.176;2023-11-19T04:44:14;9.50;99.90
8882;DHT22;4477;48.736;9.176;2023-11-19T04:46:44;9.50;99.90
8882;DHT22;4477;48.736;9.176;2023-11-19T04:49:12;9.50;99.90
8882;DHT22;4477;48.736;9.176;2023-11-19T04:51:40;9.50;99.90
8882;DHT22;4477;48.736;9.176;2023-11-19T04:54:07;9.60;99.90
8882;DHT22;4477;48.736;9.176;2023-11-19T04:56:34;9.60;99.90
8882;DHT22;4477;48.736;9.176;2023-11-19T04:59:01;9.50;99.90
8882;DHT22;4477;48.736;9.176;2023-11-19T05:01:28;9.50;99.90
8882;DHT22;4477;48.736;9.176;2023-11-19T05:03:56;9.50;99.90
8882;DHT22;4477;48.736;9.176;2023-11-19T05:06:26;9.50;99.90
8882;DHT22;4477;48.736;9.176;2023-11-19T05:08:53;9.50;99.90
8882;DHT22;4477;48.736;9.176;2023-11-19T05:11:20;9.50;99.90
8882;DHT22;4477;48.736;9.176;2023-11-19T05:13:47;9.50;99.90
8882;DHT22;4477;48.736;9.176;2023-11-19T05:16:14;9.50;99.90
8882;DHT22;4477;48.736;9.176;2023-11-19T05:18:41;9.60;99.90
8882;DHT22;4477;48.736;9.176;2023-11-19T05:21:09;9.60;99.90
8882;DHT22;4477;48.736;9.176;2023-11-19T05:23:36;9.60;99.90
8882;DHT22;4477;48.736;9.176;2023-11-19T05:26:03;9.60;99.90
8882;DHT22;4477;48.736;9.176;2023-11-19T05:28:30;9.60;99.90
8882;DHT22;4477;48.736;9.176;2023-11-19T05:30:57;9.60;99.90
8882;DHT22;4477;48.736;9.176;2023-11-19T05:33:24;9.70;99.90
8882;DHT22;4477;48.736;9.176;2023-11-19T05:35:51;9.60;99.90
8882;DHT22;4477;48.736;9.176;2023-11-19T05:38:19;9.70;99.90
8882;DHT22;4477;48.736;9.176;2023-11-19T05:40:46;9.70;99.90
8882;DHT22;4477;48.736;9.176;2023-11-19T05:43:15;9.60;99.90
8882;DHT22;4477;48.736;9.176;2023-11-19T05:45:42;9.70;99.90
8882;DHT22;4477;48.736;9.176;2023-11-19T05:48:09;9.60;99.90
8882;DHT22;4477;48.736;9.176;2023-11-19T05:50:36;9.70;99.90
8882;DHT22;4477;48.736;9.176;2023-11-19T05:53:03;9.70;99.90
8882;DHT22;4477;48.736;9.176;2023-11-19T05:55:36;9.70;99.90
8882;DHT22;4477;48.736;9.176;2023-11-19T05:58:10;9.70;99.90
8882;DHT22;4477;48.736;9.176;2023-11-19T06:00:38;9.70;99.90
8882;DHT22;4477;48.736;9.176;2023-11-19T06:03:04;9.70;99.90
8882;DHT22;4477;48.736;9.176;2023-11-19T06:05:31;9.80;99.90
8882;DHT22;4477;48.736;9.176;2023-11-19T06:07:58;9.70;99.90
8882;DHT22;4477;48.736;9.176;2023-11-19T06:10:25;9.70;99.90
8882;DHT22;4477;48.736;9.176;2023-11-19T06:12:57;9.70;99.90
8882;DHT22;4477;48.736;9.176;2023-11-19T06:15:25;9.70;99.90
8882;DHT22;4477;48.736;9.176;2023-11-19T06:17:51;9.70;99.90
8882;DHT22;4477;48.736;9.176;2023-11-19T06:20:18;9.70;99.90
8882;DHT22;4477;48.736;9.176;2023-11-19T06:22:46;9.70;99.90
8882;DHT22;4477;48.736;9.176;2023-11-19T06:25:13;9.80;99.90
8882;DHT22;4477;48.736;9.176;2023-11-19T06:27:40;9.80;99.90
8882;DHT22;4477;48.736;9.176;2023-11-19T06:30:09;9.70;99.90
8882;DHT22;4477;48.736;9.176;2023-11-19T06:32:37;9.80;99.90
8882;DHT22;4477;48.736;9.176;2023-11-19T06:35:04;9.80;99.90
8882;DHT22;4477;48.736;9.176;2023-11-19T06:37:31;9.80;99.90
8882;DHT22;4477;48.736;9.176;2023-11-19T06:39:58;9.80;99.90
8882;DHT22;4477;48.736;9.176;2023-11-19T06:42:25;9.80;99.90
8882;DHT22;4477;48.736;9.176;2023-11-19T06:44:52;9.80;99.90
8882;DHT22;4477;48.736;9.176;2023-11-19T06:47:20;9.80;99.90
8882;DHT22;4477;48.736;9.176;2023-11-19T06:49:47;9.90;99.90
8882;DHT22;4477;48.736;9.176;2023-11-19T06:52:14;9.90;99.90
8882;DHT22;4477;48.736;9.176;2023-11-19T06:54:42;9.80;99.90
8882;DHT22;4477;48.736;9.176;2023-11-19T06:57:11;9.80;99.90
8882;DHT22;4477;48.736;9.176;2023-11-19T06:59:37;9.80;99.90
8882;DHT22;4477;48.736;9.176;2023-11-19T07:02:04;9.90;99.90
8882;DHT22;4477;48.736;9.176;2023-11-19T07:04:33;9.90;99.90
8882;DHT22;4477;48.736;9.176;2023-11-19T07:07:00;9.90;99.90
8882;DHT22;4477;48.736;9.176;2023-11-19T07:09:26;9.90;99.90
8882;DHT22;4477;48.736;9.176;2023-11-19T07:11:53;9.90;99.90
8882;DHT22;4477;48.736;9.176;2023-11-19T07:14:21;9.90;99.90
8882;DHT22;4477;48.736;9.176;2023-11-19T07:16:49;9.90;99.90
8882;DHT22;4477;48.736;9.176;2023-11-19T07:19:16;9.90;99.90
8882;DHT22;4477;48.736;9.176;2023-11-19T07:21:44;9.90;99.90
8882;DHT22;4477;48.736;9.176;2023-11-19T07:24:11;9.90;99.90
8882;DHT22;4477;48.736;9.176;2023-11-19T07:26:42;9.90;99.90
8882;DHT22;4477;48.736;9.176;2023-11-19T07:29:09;9.90;99.90
8882;DHT22;4477;48.736;9.176;2023-11-19T07:31:35;10.00;99.90
8882;DHT22;4477;48.736;9.176;2023-11-19T07:34:02;10.00;99.90
8882;DHT22;4477;48.736;9.176;2023-11-19T07:36:30;10.00;99.90
8882;DHT22;4477;48.736;9.176;2023-11-19T07:38:59;10.00;99.90
8882;DHT22;4477;48.736;9.176;2023-11-19T07:41:26;10.10;99.90
8882;DHT22;4477;48.736;9.176;2023-11-19T07:43:52;10.00;99.90
8882;DHT22;4477;48.736;9.176;2023-11-19T07:46:20;10.10;99.90
8882;DHT22;4477;48.736;9.176;2023-11-19T07:48:47;10.10;99.90
8882;DHT22;4477;48.736;9.176;2023-11-19T07:51:14;10.10;99.90
8882;DHT22;4477;48.736;9.176;2023-11-19T07:53:41;10.10;99.90
8882;DHT22;4477;48.736;9.176;2023-11-19T07:56:10;10.10;99.90
8882;DHT22;4477;48.736;9.176;2023-11-19T07:58:37;10.20;99.90
8882;DHT22;4477;48.736;9.176;2023-11-19T08:01:04;10.20;99.90
8882;DHT22;4477;48.736;9.176;2023-11-19T08:03:31;10.20;99.90
8882;DHT22;4477;48.736;9.176;2023-11-19T08:05:59;10.30;99.90
8882;DHT22;4477;48.736;9.176;2023-11-19T08:08:26;10.30;99.90
8882;DHT22;4477;48.736;9.176;2023-11-19T08:10:55;10.30;99.90
8882;DHT22;4477;48.736;9.176;2023-11-19T08:13:23;10.30;99.90
8882;DHT22;4477;48.736;9.176;2023-11-19T08:15:50;10.30;99.90
8882;DHT22;4477;48.736;9.176;2023-11-19T08:18:17;10.30;99.90
8882;DHT22;4477;48.736;9.176;2023-11-19T08:20:45;10.30;99.90
8882;DHT22;4477;48.736;9.176;2023-11-19T08:23:14;10.40;99.90
8882;DHT22;4477;48.736;9.176;2023-11-19T08:25:41;10.40;99.90
8882;DHT22;4477;48.736;9.176;2023-11-19T08:28:08;10.50;99.90
8882;DHT22;4477;48.736;9.176;2023-11-19T08:30:36;10.60;99.90
8882;DHT22;4477;48.736;9.176;2023-11-19T08:33:03;10.70;99.90
8882;DHT22;4477;48.736;9.176;2023-11-19T08:35:31;10.80;99.90
8882;DHT22;4477;48.736;9.176;2023-11-19T08:37:58;10.90;99.90
8882;DHT22;4477;48.736;9.176;2023-11-19T08:40:25;11.30;99.90
8882;DHT22;4477;48.736;9.176;2023-11-19T08:42:52;11.90;99.90
8882;DHT22;4477;48.736;9.176;2023-11-19T08:45:19;11.90;99.90
8882;DHT22;4477;48.736;9.176;2023-11-19T08:47:47;11.80;99.90
8882;DHT22;4477;48.736;9.176;2023-11-19T08:50:14;11.70;99.90
8882;DHT22;4477;48.736;9.176;2023-11-19T08:52:41;11.60;99.90
8882;DHT22;4477;48.736;9.176;2023-11-19T08:55:08;11.50;99.90
8882;DHT22;4477;48.736;9.176;2023-11-19T08:57:35;11.50;99.90
8882;DHT22;4477;48.736;9.176;2023-11-19T09:00:03;11.50;99.90
8882;DHT22;4477;48.736;9.176;2023-11-19T09:02:33;11.60;99.90
8882;DHT22;4477;48.736;9.176;2023-11-19T09:05:01;11.70;99.90
8882;DHT22;4477;48.736;9.176;2023-11-19T09:07:28;12.10;99.90
8882;DHT22;4477;48.736;9.176;2023-11-19T09:09:55;12.80;99.90
8882;DHT22;4477;48.736;9.176;2023-11-19T09:12:22;13.40;99.90
8882;DHT22;4477;48.736;9.176;2023-11-19T09:14:48;14.00;99.90
8882;DHT22;4477;48.736;9.176;2023-11-19T09:17:15;13.70;99.90
8882;DHT22;4477;48.736;9.176;2023-11-19T09:19:43;13.30;99.90
8882;DHT22;4477;48.736;9.176;2023-11-19T09:22:11;12.90;99.90
8882;DHT22;4477;48.736;9.176;2023-11-19T09:24:38;12.60;99.90
8882;DHT22;4477;48.736;9.176;2023-11-19T09:27:05;12.50;99.90
8882;DHT22;4477;48.736;9.176;2023-11-19T09:29:32;12.40;99.90
8882;DHT22;4477;48.736;9.176;2023-11-19T09:31:59;12.40;99.90
8882;DHT22;4477;48.736;9.176;2023-11-19T09:34:26;12.70;99.90
8882;DHT22;4477;48.736;9.176;2023-11-19T09:36:53;13.00;99.90
8882;DHT22;4477;48.736;9.176;2023-11-19T09:39:21;13.00;99.90
8882;DHT22;4477;48.736;9.176;2023-11-19T09:41:48;13.10;99.90
8882;DHT22;4477;48.736;9.176;2023-11-19T09:44:15;13.40;99.90
8882;DHT22;4477;48.736;9.176;2023-11-19T09:46:44;13.90;99.90
8882;DHT22;4477;48.736;9.176;2023-11-19T09:49:13;14.60;99.90
8882;DHT22;4477;48.736;9.176;2023-11-19T09:51:40;15.00;99.90
8882;DHT22;4477;48.736;9.176;2023-11-19T09:54:07;15.10;99.90
8882;DHT22;4477;48.736;9.176;2023-11-19T09:56:37;15.20;99.90
8882;DHT22;4477;48.736;9.176;2023-11-19T09:59:05;15.00;99.90
8882;DHT22;4477;48.736;9.176;2023-11-19T10:01:33;15.20;99.90
8882;DHT22;4477;48.736;9.176;2023-11-19T10:04:01;15.90;99.90
8882;DHT22;4477;48.736;9.176;2023-11-19T10:06:28;16.20;99.90
8882;DHT22;4477;48.736;9.176;2023-11-19T10:08:56;16.30;99.90
8882;DHT22;4477;48.736;9.176;2023-11-19T10:11:22;16.20;99.90
8882;DHT22;4477;48.736;9.176;2023-11-19T10:13:52;15.80;99.90
8882;DHT22;4477;48.736;9.176;2023-11-19T10:16:19;15.30;99.90
8882;DHT22;4477;48.736;9.176;2023-11-19T10:18:49;15.60;99.90
8882;DHT22;4477;48.736;9.176;2023-11-19T10:21:17;15.80;99.90
8882;DHT22;4477;48.736;9.176;2023-11-19T10:23:48;16.40;99.90
8882;DHT22;4477;48.736;9.176;2023-11-19T10:26:16;16.20;99.90
8882;DHT22;4477;48.736;9.176;2023-11-19T10:28:43;15.90;99.90
8882;DHT22;4477;48.736;9.176;2023-11-19T10:31:13;16.30;99.90
8882;DHT22;4477;48.736;9.176;2023-11-19T10:33:39;15.90;99.70
8882;DHT22;4477;48.736;9.176;2023-11-19T10:36:07;15.40;99.90
8882;DHT22;4477;48.736;9.176;2023-11-19T10:38:34;15.00;99.90
8882;DHT22;4477;48.736;9.176;2023-11-19T10:41:00;14.90;99.90
8882;DHT22;4477;48.736;9.176;2023-11-19T10:43:27;15.00;99.90
8882;DHT22;4477;48.736;9.176;2023-11-19T10:45:54;15.80;99.90
8882;DHT22;4477;48.736;9.176;2023-11-19T10:48:36;16.70;98.70
8882;DHT22;4477;48.736;9.176;2023-11-19T10:51:05;17.10;95.90
8882;DHT22;4477;48.736;9.176;2023-11-19T10:53:36;17.40;93.30
8882;DHT22;4477;48.736;9.176;2023-11-19T10:56:06;18.00;91.80
8882;DHT22;4477;48.736;9.176;2023-11-19T10:58:37;18.20;91.10
8882;DHT22;4477;48.736;9.176;2023-11-19T11:01:08;18.30;90.50
8882;DHT22;4477;48.736;9.176;2023-11-19T11:03:39;18.70;88.60
8882;DHT22;4477;48.736;9.176;2023-11-19T11:06:07;19.10;84.70
8882;DHT22;4477;48.736;9.176;2023-11-19T11:08:36;19.60;83.40
8882;DHT22;4477;48.736;9.176;2023-11-19T11:11:05;19.90;81.40
8882;DHT22;4477;48.736;9.176;2023-11-19T11:13:33;18.40;85.10
8882;DHT22;4477;48.736;9.176;2023-11-19T11:16:00;17.70;84.80
8882;DHT22;4477;48.736;9.176;2023-11-19T11:18:29;17.20;88.00
8882;DHT22;4477;48.736;9.176;2023-11-19T11:21:01;16.20;90.40
8882;DHT22;4477;48.736;9.176;2023-11-19T11:23:47;15.50;90.60
8882;DHT22;4477;48.736;9.176;2023-11-19T11:26:39;15.10;92.40
8882;DHT22;4477;48.736;9.176;2023-11-19T11:29:16;16.50;91.30
8882;DHT22;4477;48.736;9.176;2023-11-19T11:31:53;17.50;88.00
8882;DHT22;4477;48.736;9.176;2023-11-19T11:34:41;16.80;89.00
8882;DHT22;4477;48.736;9.176;2023-11-19T11:37:18;15.90;90.50
8882;DHT22;4477;48.736;9.176;2023-11-19T11:39:46;15.40;91.50
8882;DHT22;4477;48.736;9.176;2023-11-19T11:42:35;15.10;93.30
8882;DHT22;4477;48.736;9.176;2023-11-19T11:45:04;15.10;93.60
8882;DHT22;4477;48.736;9.176;2023-11-19T11:48:09;15.50;92.40
8882;DHT22;4477;48.736;9.176;2023-11-19T11:50:48;16.10;90.10
8882;DHT22;4477;48.736;9.176;2023-11-19T11:53:20;15.90;87.60
8882;DHT22;4477;48.736;9.176;2023-11-19T11:55:57;15.40;89.00
8882;DHT22;4477;48.736;9.176;2023-11-19T11:58:34;15.10;91.00
8882;DHT22;4477;48.736;9.176;2023-11-19T12:01:03;16.00;90.40
8882;DHT22;4477;48.736;9.176;2023-11-19T12:03:32;16.50;89.70
8882;DHT22;4477;48.736;9.176;2023-11-19T12:05:59;16.70;86.50
8882;DHT22;4477;48.736;9.176;2023-11-19T12:08:29;16.90;85.50
8882;DHT22;4477;48.736;9.176;2023-11-19T12:10:57;16.80;82.40
8882;DHT22;4477;48.736;9.176;2023-11-19T12:13:29;16.70;84.70
8882;DHT22;4477;48.736;9.176;2023-11-19T12:16:09;15.90;84.80
8882;DHT22;4477;48.736;9.176;2023-11-19T12:18:39;15.00;89.30
8882;DHT22;4477;48.736;9.176;2023-11-19T12:21:07;14.60;90.00
8882;DHT22;4477;48.736;9.176;2023-11-19T12:23:44;14.40;91.50
8882;DHT22;4477;48.736;9.176;2023-11-19T12:26:21;14.90;89.60
8882;DHT22;4477;48.736;9.176;2023-11-19T12:28:57;14.80;87.30
8882;DHT22;4477;48.736;9.176;2023-11-19T12:31:24;15.80;87.60
8882;DHT22;4477;48.736;9.176;2023-11-19T12:33:51;15.90;83.10
8882;DHT22;4477;48.736;9.176;2023-11-19T12:36:19;15.40;83.30
8882;DHT22;4477;48.736;9.176;2023-11-19T12:38:47;15.50;83.20
8882;DHT22;4477;48.736;9.176;2023-11-19T12:41:14;15.80;84.10
8882;DHT22;4477;48.736;9.176;2023-11-19T12:43:46;15.60;83.30
8882;DHT22;4477;48.736;9.176;2023-11-19T12:46:19;15.90;81.10
8882;DHT22;4477;48.736;9.176;2023-11-19T12:48:46;15.40;82.60
8882;DHT22;4477;48.736;9.176;2023-11-19T12:51:13;15.60;84.10
8882;DHT22;4477;48.736;9.176;2023-11-19T12:53:51;15.90;82.40
8882;DHT22;4477;48.736;9.176;2023-11-19T12:56:20;16.50;77.50
8882;DHT22;4477;48.736;9.176;2023-11-19T12:58:47;17.10;74.90
8882;DHT22;4477;48.736;9.176;2023-11-19T13:01:16;17.70;72.80
8882;DHT22;4477;48.736;9.176;2023-11-19T13:03:44;18.30;71.70
8882;DHT22;4477;48.736;9.176;2023-11-19T13:06:12;18.20;70.60
8882;DHT22;4477;48.736;9.176;2023-11-19T13:08:42;18.50;67.90
8882;DHT22;4477;48.736;9.176;2023-11-19T13:11:11;18.40;65.60
8882;DHT22;4477;48.736;9.176;2023-11-19T13:13:55;18.10;63.70
8882;DHT22;4477;48.736;9.176;2023-11-19T13:16:22;17.90;65.10
8882;DHT22;4477;48.736;9.176;2023-11-19T13:18:49;16.60;69.00
8882;DHT22;4477;48.736;9.176;2023-11-19T13:21:15;15.40;73.50
8882;DHT22;4477;48.736;9.176;2023-11-19T13:23:42;14.90;74.80
8882;DHT22;4477;48.736;9.176;2023-11-19T13:26:11;14.60;78.30
8882;DHT22;4477;48.736;9.176;2023-11-19T13:28:38;15.40;75.30
8882;DHT22;4477;48.736;9.176;2023-11-19T13:31:05;15.40;75.50
8882;DHT22;4477;48.736;9.176;2023-11-19T13:33:33;15.40;76.10
8882;DHT22;4477;48.736;9.176;2023-11-19T13:35:59;15.00;78.30
8882;DHT22;4477;48.736;9.176;2023-11-19T13:38:31;15.10;78.90
8882;DHT22;4477;48.736;9.176;2023-11-19T13:40:58;15.20;78.00
8882;DHT22;4477;48.736;9.176;2023-11-19T13:43:26;14.80;78.80
8882;DHT22;4477;48.736;9.176;2023-11-19T13:45:54;14.30;81.60
8882;DHT22;4477;48.736;9.176;2023-11-19T13:48:21;14.00;83.20
8882;DHT22;4477;48.736;9.176;2023-11-19T13:50:48;14.00;83.60
8882;DHT22;4477;48.736;9.176;2023-11-19T13:53:15;13.80;85.90
8882;DHT22;4477;48.736;9.176;2023-11-19T13:55:42;14.10;83.10
8882;DHT22;4477;48.736;9.176;2023-11-19T13:58:09;15.00;79.40
8882;DHT22;4477;48.736;9.176;2023-11-19T14:00:37;15.10;79.20
8882;DHT22;4477;48.736;9.176;2023-11-19T14:03:04;15.10;78.30
8882;DHT22;4477;48.736;9.176;2023-11-19T14:05:31;14.70;77.00
8882;DHT22;4477;48.736;9.176;2023-11-19T14:07:58;14.30;79.70
8882;DHT22;4477;48.736;9.176;2023-11-19T14:10:24;13.70;82.00
8882;DHT22;4477;48.736;9.176;2023-11-19T14:12:51;13.50;85.30
8882;DHT22;4477;48.736;9.176;2023-11-19T14:15:18;13.30;85.90
8882;DHT22;4477;48.736;9.176;2023-11-19T14:17:46;13.30;84.80
8882;DHT22;4477;48.736;9.176;2023-11-19T14:20:13;13.30;84.70
8882;DHT22;4477;48.736;9.176;2023-11-19T14:22:42;13.30;83.00
8882;DHT22;4477;48.736;9.176;2023-11-19T14:25:10;13.20;83.30
8882;DHT22;4477;48.736;9.176;2023-11-19T14:27:37;13.30;84.90
8882;DHT22;4477;48.736;9.176;2023-11-19T14:30:06;13.30;85.10
8882;DHT22;4477;48.736;9.176;2023-11-19T14:32:33;13.20;85.30
8882;DHT22;4477;48.736;9.176;2023-11-19T14:35:01;13.10;86.00
8882;DHT22;4477;48.736;9.176;2023-11-19T14:37:29;12.90;86.70
8882;DHT22;4477;48.736;9.176;2023-11-19T14:39:57;12.80;86.60
8882;DHT22;4477;48.736;9.176;2023-11-19T14:42:24;12.80;86.90
8882;DHT22;4477;48.736;9.176;2023-11-19T14:44:51;12.70;88.40
8882;DHT22;4477;48.736;9.176;2023-11-19T14:47:19;12.70;88.20
8882;DHT22;4477;48.736;9.176;2023-11-19T14:49:46;12.60;88.20
8882;DHT22;4477;48.736;9.176;2023-11-19T14:52:14;12.60;88.70
8882;DHT22;4477;48.736;9.176;2023-11-19T14:54:41;12.50;89.60
8882;DHT22;4477;48.736;9.176;2023-11-19T14:57:08;12.40;90.10
8882;DHT22;4477;48.736;9.176;2023-11-19T14:59:35;12.40;90.20
8882;DHT22;4477;48.736;9.176;2023-11-19T15:02:02;12.40;90.50
8882;DHT22;4477;48.736;9.176;2023-11-19T15:04:30;12.40;90.00
8882;DHT22;4477;48.736;9.176;2023-11-19T15:06:58;12.30;90.20
8882;DHT22;4477;48.736;9.176;2023-11-19T15:09:26;12.20;90.00
8882;DHT22;4477;48.736;9.176;2023-11-19T15:11:53;12.20;89.40
8882;DHT22;4477;48.736;9.176;2023-11-19T15:14:20;12.20;89.70
8882;DHT22;4477;48.736;9.176;2023-11-19T15:16:47;12.10;90.20
8882;DHT22;4477;48.736;9.176;2023-11-19T15:19:16;12.00;90.10
8882;DHT22;4477;48.736;9.176;2023-11-19T15:21:45;12.00;90.30
8882;DHT22;4477;48.736;9.176;2023-11-19T15:24:12;12.00;90.40
8882;DHT22;4477;48.736;9.176;2023-11-19T15:26:40;11.80;91.10
8882;DHT22;4477;48.736;9.176;2023-11-19T15:29:07;11.80;90.60
8882;DHT22;4477;48.736;9.176;2023-11-19T15:31:34;11.70;90.30
8882;DHT22;4477;48.736;9.176;2023-11-19T15:34:01;11.70;90.30
8882;DHT22;4477;48.736;9.176;2023-11-19T15:36:29;11.60;90.70
8882;DHT22;4477;48.736;9.176;2023-11-19T15:38:57;11.50;90.40
8882;DHT22;4477;48.736;9.176;2023-11-19T15:41:24;11.50;90.60
8882;DHT22;4477;48.736;9.176;2023-11-19T15:43:52;11.50;90.60
8882;DHT22;4477;48.736;9.176;2023-11-19T15:46:20;11.40;90.90
8882;DHT22;4477;48.736;9.176;2023-11-19T15:48:47;11.20;91.00
8882;DHT22;4477;48.736;9.176;2023-11-19T15:51:13;11.20;91.30
8882;DHT22;4477;48.736;9.176;2023-11-19T15:53:40;11.10;91.10
8882;DHT22;4477;48.736;9.176;2023-11-19T15:56:08;11.00;91.50
8882;DHT22;4477;48.736;9.176;2023-11-19T15:58:35;11.10;90.90
8882;DHT22;4477;48.736;9.176;2023-11-19T16:01:06;11.00;90.90
8882;DHT22;4477;48.736;9.176;2023-11-19T16:03:33;11.10;90.80
8882;DHT22;4477;48.736;9.176;2023-11-19T16:06:01;11.10;90.60
8882;DHT22;4477;48.736;9.176;2023-11-19T16:08:28;11.10;90.70
8882;DHT22;4477;48.736;9.176;2023-11-19T16:10:54;11.10;90.90
8882;DHT22;4477;48.736;9.176;2023-11-19T16:13:21;11.00;91.10
8882;DHT22;4477;48.736;9.176;2023-11-19T16:15:48;11.10;91.40